sensor_id;sensor_type;location;lat;lon;timestamp;P1;durP1;ratioP1;P2;durP2;ratioP2
21354;SDS011;10835;50.148;19.760;2022-09-17T00:01:42;7.82;;;5.30;;
21354;SDS011;10835;50.148;19.760;2022-09-17T00:04:11;8.65;;;5.60;;
21354;SDS011;10835;50.148;19.760;2022-09-17T00:06:40;17.20;;;6.35;;
21354;SDS011;10835;50.148;19.760;2022-09-17T00:09:11;10.35;;;4.88;;
21354;SDS011;10835;50.148;19.760;2022-09-17T00:11:40;6.72;;;4.38;;
21354;SDS011;10835;50.148;19.760;2022-09-17T00:14:11;8.18;;;4.90;;
21354;SDS011;10835;50.148;19.760;2022-09-17T00:16:43;7.80;;;4.07;;
21354;SDS011;10835;50.148;19.760;2022-09-17T00:19:15;8.63;;;4.78;;
21354;SDS011;10835;50.148;19.760;2022-09-17T00:21:46;7.30;;;4.57;;
21354;SDS011;10835;50.148;19.760;2022-09-17T00:24:14;6.03;;;4.60;;
21354;SDS011;10835;50.148;19.760;2022-09-17T00:26:43;7.43;;;4.65;;
21354;SDS011;10835;50.148;19.760;2022-09-17T00:29:11;4.97;;;3.70;;
21354;SDS011;10835;50.148;19.760;2022-09-17T00:31:40;7.38;;;4.90;;
21354;SDS011;10835;50.148;19.760;2022-09-17T00:34:09;6.78;;;5.00;;
21354;SDS011;10835;50.148;19.760;2022-09-17T00:36:38;7.03;;;4.43;;
21354;SDS011;10835;50.148;19.760;2022-09-17T00:39:07;6.47;;;4.35;;
21354;SDS011;10835;50.148;19.760;2022-09-17T00:41:37;10.05;;;4.32;;
21354;SDS011;10835;50.148;19.760;2022-09-17T00:47:07;4.47;;;3.70;;
21354;SDS011;10835;50.148;19.760;2022-09-17T00:49:40;11.00;;;4.97;;
21354;SDS011;10835;50.148;19.760;2022-09-17T00:52:11;4.70;;;3.13;;
21354;SDS011;10835;50.148;19.760;2022-09-17T00:54:45;8.90;;;4.68;;
21354;SDS011;10835;50.148;19.760;2022-09-17T00:57:19;9.13;;;4.60;;
21354;SDS011;10835;50.148;19.760;2022-09-17T00:59:49;6.88;;;5.03;;
21354;SDS011;10835;50.148;19.760;2022-09-17T01:02:18;6.40;;;4.63;;
21354;SDS011;10835;50.148;19.760;2022-09-17T01:04:47;6.75;;;4.30;;
21354;SDS011;10835;50.148;19.760;2022-09-17T01:07:19;8.95;;;4.70;;
21354;SDS011;10835;50.148;19.760;2022-09-17T01:10:04;9.07;;;4.53;;
21354;SDS011;10835;50.148;19.760;2022-09-17T01:12:44;8.38;;;4.60;;
21354;SDS011;10835;50.148;19.760;2022-09-17T01:15:26;5.63;;;4.25;;
21354;SDS011;10835;50.148;19.760;2022-09-17T01:18:04;5.80;;;4.00;;
21354;SDS011;10835;50.148;19.760;2022-09-17T01:24:05;7.90;;;4.57;;
21354;SDS011;10835;50.148;19.760;2022-09-17T01:27:02;8.30;;;4.72;;
21354;SDS011;10835;50.148;19.760;2022-09-17T01:29:57;8.77;;;4.38;;
21354;SDS011;10835;50.148;19.760;2022-09-17T01:32:41;7.03;;;4.55;;
21354;SDS011;10835;50.148;19.760;2022-09-17T01:35:14;5.25;;;3.83;;
21354;SDS011;10835;50.148;19.760;2022-09-17T01:37:48;7.72;;;4.10;;
21354;SDS011;10835;50.148;19.760;2022-09-17T01:40:23;4.50;;;3.80;;
21354;SDS011;10835;50.148;19.760;2022-09-17T01:43:00;8.90;;;3.97;;
21354;SDS011;10835;50.148;19.760;2022-09-17T01:45:34;5.10;;;3.42;;
21354;SDS011;10835;50.148;19.760;2022-09-17T01:48:08;5.35;;;3.85;;
21354;SDS011;10835;50.148;19.760;2022-09-17T01:50:40;6.88;;;3.92;;
21354;SDS011;10835;50.148;19.760;2022-09-17T01:53:12;5.65;;;4.45;;
21354;SDS011;10835;50.148;19.760;2022-09-17T01:55:42;6.40;;;4.95;;
21354;SDS011;10835;50.148;19.760;2022-09-17T01:58:15;7.30;;;4.10;;
21354;SDS011;10835;50.148;19.760;2022-09-17T02:00:49;9.80;;;4.55;;
21354;SDS011;10835;50.148;19.760;2022-09-17T02:03:23;5.93;;;4.63;;
21354;SDS011;10835;50.148;19.760;2022-09-17T02:05:57;7.25;;;4.80;;
21354;SDS011;10835;50.148;19.760;2022-09-17T02:08:29;7.40;;;4.22;;
21354;SDS011;10835;50.148;19.760;2022-09-17T02:11:02;6.53;;;4.40;;
21354;SDS011;10835;50.148;19.760;2022-09-17T02:13:35;5.57;;;3.95;;
21354;SDS011;10835;50.148;19.760;2022-09-17T02:16:09;5.57;;;4.00;;
21354;SDS011;10835;50.148;19.760;2022-09-17T02:18:44;6.55;;;3.90;;
21354;SDS011;10835;50.148;19.760;2022-09-17T02:21:19;5.35;;;3.97;;
21354;SDS011;10835;50.148;19.760;2022-09-17T02:23:57;5.22;;;4.03;;
21354;SDS011;10835;50.148;19.760;2022-09-17T02:26:30;5.85;;;3.88;;
21354;SDS011;10835;50.148;19.760;2022-09-17T02:29:03;5.55;;;4.18;;
21354;SDS011;10835;50.148;19.760;2022-09-17T02:31:36;6.78;;;4.38;;
21354;SDS011;10835;50.148;19.760;2022-09-17T02:34:07;6.15;;;4.05;;
21354;SDS011;10835;50.148;19.760;2022-09-17T02:36:36;5.22;;;3.75;;
21354;SDS011;10835;50.148;19.760;2022-09-17T02:39:05;6.50;;;4.20;;
21354;SDS011;10835;50.148;19.760;2022-09-17T02:41:37;6.32;;;4.15;;
21354;SDS011;10835;50.148;19.760;2022-09-17T02:44:14;4.53;;;3.97;;
21354;SDS011;10835;50.148;19.760;2022-09-17T02:49:51;5.57;;;3.92;;
21354;SDS011;10835;50.148;19.760;2022-09-17T02:52:31;4.93;;;3.72;;
21354;SDS011;10835;50.148;19.760;2022-09-17T02:55:09;6.05;;;3.60;;
21354;SDS011;10835;50.148;19.760;2022-09-17T02:57:46;3.70;;;3.30;;
21354;SDS011;10835;50.148;19.760;2022-09-17T03:00:22;6.65;;;4.38;;
21354;SDS011;10835;50.148;19.760;2022-09-17T03:02:52;4.93;;;3.83;;
21354;SDS011;10835;50.148;19.760;2022-09-17T03:05:26;8.10;;;5.07;;
21354;SDS011;10835;50.148;19.760;2022-09-17T03:07:58;5.60;;;4.00;;
21354;SDS011;10835;50.148;19.760;2022-09-17T03:10:29;6.93;;;3.72;;
21354;SDS011;10835;50.148;19.760;2022-09-17T03:12:59;5.18;;;3.92;;
21354;SDS011;10835;50.148;19.760;2022-09-17T03:15:28;4.85;;;4.00;;
21354;SDS011;10835;50.148;19.760;2022-09-17T03:17:56;5.55;;;4.35;;
21354;SDS011;10835;50.148;19.760;2022-09-17T03:20:24;4.93;;;3.53;;
21354;SDS011;10835;50.148;19.760;2022-09-17T03:22:56;6.03;;;4.28;;
21354;SDS011;10835;50.148;19.760;2022-09-17T03:25:24;7.57;;;4.60;;
21354;SDS011;10835;50.148;19.760;2022-09-17T03:27:53;5.72;;;4.07;;
21354;SDS011;10835;50.148;19.760;2022-09-17T03:30:21;5.03;;;3.83;;
21354;SDS011;10835;50.148;19.760;2022-09-17T03:32:49;5.95;;;3.80;;
21354;SDS011;10835;50.148;19.760;2022-09-17T03:35:17;5.72;;;3.90;;
21354;SDS011;10835;50.148;19.760;2022-09-17T03:37:45;4.88;;;3.65;;
21354;SDS011;10835;50.148;19.760;2022-09-17T03:40:15;7.50;;;3.33;;
21354;SDS011;10835;50.148;19.760;2022-09-17T03:42:46;6.40;;;3.60;;
21354;SDS011;10835;50.148;19.760;2022-09-17T03:45:14;5.03;;;3.53;;
21354;SDS011;10835;50.148;19.760;2022-09-17T03:47:42;5.18;;;3.97;;
21354;SDS011;10835;50.148;19.760;2022-09-17T03:50:10;5.95;;;3.95;;
21354;SDS011;10835;50.148;19.760;2022-09-17T03:52:39;6.47;;;4.38;;
21354;SDS011;10835;50.148;19.760;2022-09-17T03:55:09;5.38;;;4.07;;
21354;SDS011;10835;50.148;19.760;2022-09-17T03:57:39;5.93;;;4.35;;
21354;SDS011;10835;50.148;19.760;2022-09-17T04:00:07;5.00;;;4.07;;
21354;SDS011;10835;50.148;19.760;2022-09-17T04:02:38;4.85;;;3.85;;
21354;SDS011;10835;50.148;19.760;2022-09-17T04:05:06;6.35;;;3.95;;
21354;SDS011;10835;50.148;19.760;2022-09-17T04:07:36;5.97;;;4.20;;
21354;SDS011;10835;50.148;19.760;2022-09-17T04:10:05;7.80;;;4.93;;
21354;SDS011;10835;50.148;19.760;2022-09-17T04:12:34;11.52;;;5.63;;
21354;SDS011;10835;50.148;19.760;2022-09-17T04:15:04;8.43;;;5.53;;
21354;SDS011;10835;50.148;19.760;2022-09-17T04:17:33;7.53;;;5.18;;
21354;SDS011;10835;50.148;19.760;2022-09-17T04:20:02;7.57;;;5.35;;
21354;SDS011;10835;50.148;19.760;2022-09-17T04:22:30;6.93;;;4.68;;
21354;SDS011;10835;50.148;19.760;2022-09-17T04:24:58;8.68;;;4.82;;
21354;SDS011;10835;50.148;19.760;2022-09-17T04:27:26;7.85;;;4.97;;
21354;SDS011;10835;50.148;19.760;2022-09-17T04:29:57;7.25;;;4.88;;
21354;SDS011;10835;50.148;19.760;2022-09-17T04:32:28;6.78;;;4.60;;
21354;SDS011;10835;50.148;19.760;2022-09-17T04:34:57;7.70;;;4.90;;
21354;SDS011;10835;50.148;19.760;2022-09-17T04:37:27;5.53;;;4.20;;
21354;SDS011;10835;50.148;19.760;2022-09-17T04:39:55;5.53;;;3.92;;
21354;SDS011;10835;50.148;19.760;2022-09-17T04:42:24;5.35;;;4.18;;
21354;SDS011;10835;50.148;19.760;2022-09-17T04:44:53;4.93;;;3.95;;
21354;SDS011;10835;50.148;19.760;2022-09-17T04:47:24;4.68;;;3.63;;
21354;SDS011;10835;50.148;19.760;2022-09-17T04:49:53;9.07;;;3.88;;
21354;SDS011;10835;50.148;19.760;2022-09-17T04:52:21;5.80;;;3.78;;
21354;SDS011;10835;50.148;19.760;2022-09-17T04:54:55;4.45;;;3.60;;
21354;SDS011;10835;50.148;19.760;2022-09-17T04:57:23;3.75;;;3.38;;
21354;SDS011;10835;50.148;19.760;2022-09-17T04:59:52;8.95;;;4.00;;
21354;SDS011;10835;50.148;19.760;2022-09-17T05:02:20;5.68;;;3.72;;
21354;SDS011;10835;50.148;19.760;2022-09-17T05:04:48;5.55;;;3.92;;
21354;SDS011;10835;50.148;19.760;2022-09-17T05:07:17;6.82;;;3.35;;
21354;SDS011;10835;50.148;19.760;2022-09-17T05:09:45;4.78;;;3.65;;
21354;SDS011;10835;50.148;19.760;2022-09-17T05:12:13;5.47;;;3.35;;
21354;SDS011;10835;50.148;19.760;2022-09-17T05:14:41;5.35;;;3.35;;
21354;SDS011;10835;50.148;19.760;2022-09-17T05:17:12;6.03;;;3.88;;
21354;SDS011;10835;50.148;19.760;2022-09-17T05:19:40;5.97;;;3.40;;
21354;SDS011;10835;50.148;19.760;2022-09-17T05:22:10;7.55;;;3.70;;
21354;SDS011;10835;50.148;19.760;2022-09-17T05:24:45;6.18;;;4.03;;
21354;SDS011;10835;50.148;19.760;2022-09-17T05:27:13;7.93;;;3.70;;
21354;SDS011;10835;50.148;19.760;2022-09-17T05:29:41;5.43;;;3.42;;
21354;SDS011;10835;50.148;19.760;2022-09-17T05:32:11;4.95;;;3.60;;
21354;SDS011;10835;50.148;19.760;2022-09-17T05:34:40;4.82;;;3.67;;
21354;SDS011;10835;50.148;19.760;2022-09-17T05:37:08;4.70;;;3.38;;
21354;SDS011;10835;50.148;19.760;2022-09-17T05:39:36;4.97;;;3.20;;
21354;SDS011;10835;50.148;19.760;2022-09-17T05:42:06;5.85;;;3.78;;
21354;SDS011;10835;50.148;19.760;2022-09-17T05:44:34;4.80;;;3.35;;
21354;SDS011;10835;50.148;19.760;2022-09-17T05:47:02;5.18;;;2.92;;
21354;SDS011;10835;50.148;19.760;2022-09-17T05:49:31;5.50;;;3.40;;
21354;SDS011;10835;50.148;19.760;2022-09-17T05:51:59;7.15;;;4.28;;
21354;SDS011;10835;50.148;19.760;2022-09-17T05:54:28;3.70;;;2.72;;
21354;SDS011;10835;50.148;19.760;2022-09-17T05:56:58;4.95;;;3.42;;
21354;SDS011;10835;50.148;19.760;2022-09-17T05:59:28;4.75;;;3.65;;
21354;SDS011;10835;50.148;19.760;2022-09-17T06:01:58;6.47;;;4.00;;
21354;SDS011;10835;50.148;19.760;2022-09-17T06:04:26;4.82;;;3.45;;
21354;SDS011;10835;50.148;19.760;2022-09-17T06:07:02;5.30;;;3.70;;
21354;SDS011;10835;50.148;19.760;2022-09-17T06:09:31;6.30;;;4.18;;
21354;SDS011;10835;50.148;19.760;2022-09-17T06:12:01;6.53;;;4.35;;
21354;SDS011;10835;50.148;19.760;2022-09-17T06:14:31;5.22;;;3.90;;
21354;SDS011;10835;50.148;19.760;2022-09-17T06:16:59;8.18;;;5.20;;
21354;SDS011;10835;50.148;19.760;2022-09-17T06:19:27;9.52;;;4.93;;
21354;SDS011;10835;50.148;19.760;2022-09-17T06:21:55;6.72;;;4.47;;
21354;SDS011;10835;50.148;19.760;2022-09-17T06:24:23;5.43;;;3.97;;
21354;SDS011;10835;50.148;19.760;2022-09-17T06:26:51;5.70;;;3.80;;
21354;SDS011;10835;50.148;19.760;2022-09-17T06:29:19;4.70;;;3.65;;
21354;SDS011;10835;50.148;19.760;2022-09-17T06:31:48;5.43;;;3.45;;
21354;SDS011;10835;50.148;19.760;2022-09-17T06:34:17;4.97;;;3.60;;
21354;SDS011;10835;50.148;19.760;2022-09-17T06:36:45;8.02;;;4.10;;
21354;SDS011;10835;50.148;19.760;2022-09-17T06:39:15;6.72;;;4.35;;
21354;SDS011;10835;50.148;19.760;2022-09-17T06:41:43;4.88;;;3.65;;
21354;SDS011;10835;50.148;19.760;2022-09-17T06:44:13;4.72;;;3.60;;
21354;SDS011;10835;50.148;19.760;2022-09-17T06:46:42;6.25;;;4.28;;
21354;SDS011;10835;50.148;19.760;2022-09-17T06:49:12;6.10;;;4.57;;
21354;SDS011;10835;50.148;19.760;2022-09-17T06:51:42;8.55;;;5.53;;
21354;SDS011;10835;50.148;19.760;2022-09-17T06:54:11;7.68;;;4.65;;
21354;SDS011;10835;50.148;19.760;2022-09-17T06:56:39;9.52;;;5.22;;
21354;SDS011;10835;50.148;19.760;2022-09-17T06:59:07;7.13;;;4.30;;
21354;SDS011;10835;50.148;19.760;2022-09-17T07:01:35;7.40;;;4.63;;
21354;SDS011;10835;50.148;19.760;2022-09-17T07:04:05;7.82;;;3.90;;
21354;SDS011;10835;50.148;19.760;2022-09-17T07:06:34;9.60;;;4.00;;
21354;SDS011;10835;50.148;19.760;2022-09-17T07:09:02;6.32;;;4.25;;
21354;SDS011;10835;50.148;19.760;2022-09-17T07:11:36;4.15;;;3.65;;
21354;SDS011;10835;50.148;19.760;2022-09-17T07:14:04;5.55;;;4.20;;
21354;SDS011;10835;50.148;19.760;2022-09-17T07:16:32;5.18;;;3.85;;
21354;SDS011;10835;50.148;19.760;2022-09-17T07:19:02;5.40;;;3.15;;
21354;SDS011;10835;50.148;19.760;2022-09-17T07:21:31;6.90;;;3.53;;
21354;SDS011;10835;50.148;19.760;2022-09-17T07:24:01;4.65;;;2.25;;
21354;SDS011;10835;50.148;19.760;2022-09-17T07:26:29;4.63;;;3.40;;
21354;SDS011;10835;50.148;19.760;2022-09-17T07:28:59;5.45;;;3.95;;
21354;SDS011;10835;50.148;19.760;2022-09-17T07:31:31;6.85;;;3.88;;
21354;SDS011;10835;50.148;19.760;2022-09-17T07:34:01;6.68;;;3.95;;
21354;SDS011;10835;50.148;19.760;2022-09-17T07:36:31;7.78;;;2.80;;
21354;SDS011;10835;50.148;19.760;2022-09-17T07:39:01;4.68;;;3.13;;
21354;SDS011;10835;50.148;19.760;2022-09-17T07:41:29;4.30;;;3.22;;
21354;SDS011;10835;50.148;19.760;2022-09-17T07:44:01;5.25;;;3.80;;
21354;SDS011;10835;50.148;19.760;2022-09-17T07:46:32;5.45;;;3.47;;
21354;SDS011;10835;50.148;19.760;2022-09-17T07:49:00;4.88;;;2.88;;
21354;SDS011;10835;50.148;19.760;2022-09-17T07:51:29;4.85;;;3.20;;
21354;SDS011;10835;50.148;19.760;2022-09-17T07:53:57;5.20;;;3.13;;
21354;SDS011;10835;50.148;19.760;2022-09-17T07:56:28;7.05;;;3.13;;
21354;SDS011;10835;50.148;19.760;2022-09-17T07:59:00;3.90;;;2.80;;
21354;SDS011;10835;50.148;19.760;2022-09-17T08:01:30;4.22;;;2.65;;
21354;SDS011;10835;50.148;19.760;2022-09-17T08:04:07;5.15;;;3.15;;
21354;SDS011;10835;50.148;19.760;2022-09-17T08:06:37;4.85;;;3.25;;
21354;SDS011;10835;50.148;19.760;2022-09-17T08:09:06;4.90;;;2.63;;
21354;SDS011;10835;50.148;19.760;2022-09-17T08:11:37;4.32;;;2.38;;
21354;SDS011;10835;50.148;19.760;2022-09-17T08:14:22;3.45;;;2.40;;
21354;SDS011;10835;50.148;19.760;2022-09-17T08:16:55;3.55;;;2.70;;
21354;SDS011;10835;50.148;19.760;2022-09-17T08:19:23;6.13;;;3.28;;
21354;SDS011;10835;50.148;19.760;2022-09-17T08:21:51;6.75;;;3.05;;
21354;SDS011;10835;50.148;19.760;2022-09-17T08:24:20;3.30;;;2.58;;
21354;SDS011;10835;50.148;19.760;2022-09-17T08:26:51;5.88;;;2.90;;
21354;SDS011;10835;50.148;19.760;2022-09-17T08:29:19;3.28;;;2.75;;
21354;SDS011;10835;50.148;19.760;2022-09-17T08:31:47;4.47;;;2.38;;
21354;SDS011;10835;50.148;19.760;2022-09-17T08:34:16;3.63;;;2.75;;
21354;SDS011;10835;50.148;19.760;2022-09-17T08:36:46;9.88;;;2.13;;
21354;SDS011;10835;50.148;19.760;2022-09-17T08:39:14;3.85;;;2.42;;
21354;SDS011;10835;50.148;19.760;2022-09-17T08:41:47;2.45;;;2.00;;
21354;SDS011;10835;50.148;19.760;2022-09-17T08:44:25;3.78;;;2.00;;
21354;SDS011;10835;50.148;19.760;2022-09-17T08:46:58;2.50;;;2.30;;
21354;SDS011;10835;50.148;19.760;2022-09-17T08:49:32;2.75;;;1.50;;
21354;SDS011;10835;50.148;19.760;2022-09-17T08:55:13;3.42;;;1.95;;
21354;SDS011;10835;50.148;19.760;2022-09-17T08:57:57;2.30;;;2.10;;
21354;SDS011;10835;50.148;19.760;2022-09-17T09:00:40;2.92;;;2.10;;
21354;SDS011;10835;50.148;19.760;2022-09-17T09:03:20;3.00;;;1.85;;
21354;SDS011;10835;50.148;19.760;2022-09-17T09:05:57;3.28;;;2.00;;
21354;SDS011;10835;50.148;19.760;2022-09-17T09:08:35;2.38;;;2.00;;
21354;SDS011;10835;50.148;19.760;2022-09-17T09:11:10;4.03;;;2.20;;
21354;SDS011;10835;50.148;19.760;2022-09-17T09:13:43;2.25;;;1.80;;
21354;SDS011;10835;50.148;19.760;2022-09-17T09:16:16;2.50;;;1.77;;
21354;SDS011;10835;50.148;19.760;2022-09-17T09:18:45;3.10;;;2.28;;
21354;SDS011;10835;50.148;19.760;2022-09-17T09:21:22;2.60;;;1.90;;
21354;SDS011;10835;50.148;19.760;2022-09-17T09:23:54;3.00;;;1.90;;
21354;SDS011;10835;50.148;19.760;2022-09-17T09:26:29;3.45;;;2.05;;
21354;SDS011;10835;50.148;19.760;2022-09-17T09:29:14;3.40;;;2.00;;
21354;SDS011;10835;50.148;19.760;2022-09-17T09:31:56;3.70;;;2.05;;
21354;SDS011;10835;50.148;19.760;2022-09-17T09:43:28;3.60;;;2.00;;
21354;SDS011;10835;50.148;19.760;2022-09-17T09:46:29;4.25;;;2.20;;
21354;SDS011;10835;50.148;19.760;2022-09-17T09:49:11;2.65;;;1.92;;
21354;SDS011;10835;50.148;19.760;2022-09-17T09:51:50;1.50;;;1.40;;
21354;SDS011;10835;50.148;19.760;2022-09-17T09:54:29;2.58;;;2.20;;
21354;SDS011;10835;50.148;19.760;2022-09-17T09:57:10;12.00;;;1.90;;
21354;SDS011;10835;50.148;19.760;2022-09-17T10:04:26;3.17;;;2.10;;
21354;SDS011;10835;50.148;19.760;2022-09-17T10:06:59;2.33;;;1.35;;
21354;SDS011;10835;50.148;19.760;2022-09-17T10:09:29;3.92;;;1.95;;
21354;SDS011;10835;50.148;19.760;2022-09-17T10:12:14;1.73;;;1.50;;
21354;SDS011;10835;50.148;19.760;2022-09-17T10:14:44;2.90;;;1.50;;
21354;SDS011;10835;50.148;19.760;2022-09-17T10:17:14;1.20;;;1.10;;
21354;SDS011;10835;50.148;19.760;2022-09-17T10:19:46;2.30;;;1.33;;
21354;SDS011;10835;50.148;19.760;2022-09-17T10:22:31;3.40;;;1.40;;
21354;SDS011;10835;50.148;19.760;2022-09-17T10:25:02;1.80;;;1.58;;
21354;SDS011;10835;50.148;19.760;2022-09-17T10:27:33;4.53;;;1.50;;
21354;SDS011;10835;50.148;19.760;2022-09-17T10:30:03;2.80;;;1.85;;
21354;SDS011;10835;50.148;19.760;2022-09-17T10:32:44;4.78;;;1.92;;
21354;SDS011;10835;50.148;19.760;2022-09-17T10:35:41;4.75;;;1.98;;
21354;SDS011;10835;50.148;19.760;2022-09-17T10:38:30;3.40;;;1.40;;
21354;SDS011;10835;50.148;19.760;2022-09-17T10:41:11;4.15;;;1.90;;
21354;SDS011;10835;50.148;19.760;2022-09-17T10:43:44;2.67;;;1.50;;
21354;SDS011;10835;50.148;19.760;2022-09-17T10:46:14;5.18;;;2.72;;
21354;SDS011;10835;50.148;19.760;2022-09-17T10:48:56;13.05;;;4.60;;
21354;SDS011;10835;50.148;19.760;2022-09-17T10:51:34;13.90;;;4.15;;
21354;SDS011;10835;50.148;19.760;2022-09-17T10:54:07;2.55;;;1.50;;
21354;SDS011;10835;50.148;19.760;2022-09-17T10:56:57;3.65;;;1.35;;
21354;SDS011;10835;50.148;19.760;2022-09-17T10:59:48;2.88;;;1.50;;
21354;SDS011;10835;50.148;19.760;2022-09-17T11:02:35;2.65;;;1.38;;
21354;SDS011;10835;50.148;19.760;2022-09-17T11:05:40;4.03;;;1.95;;
21354;SDS011;10835;50.148;19.760;2022-09-17T11:08:22;3.05;;;1.73;;
21354;SDS011;10835;50.148;19.760;2022-09-17T11:11:01;3.03;;;1.65;;
21354;SDS011;10835;50.148;19.760;2022-09-17T11:13:39;2.22;;;1.63;;
21354;SDS011;10835;50.148;19.760;2022-09-17T11:16:17;2.90;;;1.83;;
21354;SDS011;10835;50.148;19.760;2022-09-17T11:18:56;2.20;;;1.92;;
21354;SDS011;10835;50.148;19.760;2022-09-17T11:21:44;3.30;;;1.90;;
21354;SDS011;10835;50.148;19.760;2022-09-17T11:27:28;2.70;;;1.90;;
21354;SDS011;10835;50.148;19.760;2022-09-17T11:30:07;2.10;;;1.60;;
21354;SDS011;10835;50.148;19.760;2022-09-17T11:32:47;3.88;;;2.00;;
21354;SDS011;10835;50.148;19.760;2022-09-17T11:35:35;3.17;;;1.83;;
21354;SDS011;10835;50.148;19.760;2022-09-17T11:38:07;5.38;;;2.25;;
21354;SDS011;10835;50.148;19.760;2022-09-17T11:40:43;4.20;;;2.08;;
21354;SDS011;10835;50.148;19.760;2022-09-17T11:43:20;5.30;;;2.00;;
21354;SDS011;10835;50.148;19.760;2022-09-17T11:45:56;4.45;;;2.10;;
21354;SDS011;10835;50.148;19.760;2022-09-17T11:48:29;4.32;;;1.63;;
21354;SDS011;10835;50.148;19.760;2022-09-17T11:51:05;2.75;;;1.73;;
21354;SDS011;10835;50.148;19.760;2022-09-17T11:53:42;1.88;;;1.45;;
21354;SDS011;10835;50.148;19.760;2022-09-17T11:56:16;2.72;;;1.83;;
21354;SDS011;10835;50.148;19.760;2022-09-17T11:58:50;3.42;;;1.58;;
21354;SDS011;10835;50.148;19.760;2022-09-17T12:01:20;2.40;;;1.90;;
21354;SDS011;10835;50.148;19.760;2022-09-17T12:03:56;3.05;;;2.00;;
21354;SDS011;10835;50.148;19.760;2022-09-17T12:06:33;1.55;;;1.30;;
21354;SDS011;10835;50.148;19.760;2022-09-17T12:09:08;3.30;;;2.00;;
21354;SDS011;10835;50.148;19.760;2022-09-17T12:11:43;4.63;;;2.10;;
21354;SDS011;10835;50.148;19.760;2022-09-17T12:14:18;4.97;;;1.88;;
21354;SDS011;10835;50.148;19.760;2022-09-17T12:16:51;3.92;;;2.10;;
21354;SDS011;10835;50.148;19.760;2022-09-17T12:19:24;2.65;;;2.20;;
21354;SDS011;10835;50.148;19.760;2022-09-17T12:21:58;3.40;;;1.70;;
21354;SDS011;10835;50.148;19.760;2022-09-17T12:24:33;3.30;;;2.47;;
21354;SDS011;10835;50.148;19.760;2022-09-17T12:27:07;5.25;;;2.60;;
21354;SDS011;10835;50.148;19.760;2022-09-17T12:29:47;2.83;;;1.73;;
21354;SDS011;10835;50.148;19.760;2022-09-17T12:32:49;3.65;;;2.17;;
21354;SDS011;10835;50.148;19.760;2022-09-17T12:35:49;2.22;;;1.55;;
21354;SDS011;10835;50.148;19.760;2022-09-17T12:38:47;5.25;;;1.88;;
21354;SDS011;10835;50.148;19.760;2022-09-17T12:41:36;8.30;;;2.17;;
21354;SDS011;10835;50.148;19.760;2022-09-17T12:44:24;3.15;;;1.70;;
21354;SDS011;10835;50.148;19.760;2022-09-17T12:47:11;3.28;;;2.03;;
21354;SDS011;10835;50.148;19.760;2022-09-17T12:50:06;3.80;;;1.92;;
21354;SDS011;10835;50.148;19.760;2022-09-17T12:52:51;3.03;;;1.80;;
21354;SDS011;10835;50.148;19.760;2022-09-17T12:55:43;3.30;;;2.30;;
21354;SDS011;10835;50.148;19.760;2022-09-17T12:58:28;4.15;;;1.90;;
21354;SDS011;10835;50.148;19.760;2022-09-17T13:01:13;4.15;;;2.08;;
21354;SDS011;10835;50.148;19.760;2022-09-17T13:03:51;2.88;;;1.80;;
21354;SDS011;10835;50.148;19.760;2022-09-17T13:06:29;2.80;;;2.03;;
21354;SDS011;10835;50.148;19.760;2022-09-17T13:09:39;3.75;;;2.25;;
21354;SDS011;10835;50.148;19.760;2022-09-17T13:12:24;2.03;;;1.83;;
21354;SDS011;10835;50.148;19.760;2022-09-17T13:14:59;2.75;;;2.20;;
21354;SDS011;10835;50.148;19.760;2022-09-17T13:17:45;4.15;;;2.00;;
21354;SDS011;10835;50.148;19.760;2022-09-17T13:20:42;3.58;;;2.45;;
21354;SDS011;10835;50.148;19.760;2022-09-17T13:23:29;3.95;;;1.95;;
21354;SDS011;10835;50.148;19.760;2022-09-17T13:26:03;2.38;;;1.80;;
21354;SDS011;10835;50.148;19.760;2022-09-17T13:28:37;3.50;;;1.80;;
21354;SDS011;10835;50.148;19.760;2022-09-17T13:31:18;1.77;;;1.58;;
21354;SDS011;10835;50.148;19.760;2022-09-17T13:33:49;5.57;;;2.20;;
21354;SDS011;10835;50.148;19.760;2022-09-17T13:36:34;3.53;;;2.08;;
21354;SDS011;10835;50.148;19.760;2022-09-17T13:42:03;3.60;;;2.13;;
21354;SDS011;10835;50.148;19.760;2022-09-17T13:44:43;4.07;;;1.98;;
21354;SDS011;10835;50.148;19.760;2022-09-17T13:47:18;2.78;;;2.53;;
21354;SDS011;10835;50.148;19.760;2022-09-17T13:49:56;5.35;;;2.78;;
21354;SDS011;10835;50.148;19.760;2022-09-17T13:52:29;3.30;;;2.40;;
21354;SDS011;10835;50.148;19.760;2022-09-17T13:55:07;5.20;;;2.60;;
21354;SDS011;10835;50.148;19.760;2022-09-17T13:57:47;5.90;;;3.47;;
21354;SDS011;10835;50.148;19.760;2022-09-17T14:09:34;4.13;;;2.70;;
21354;SDS011;10835;50.148;19.760;2022-09-17T14:15:34;6.15;;;3.30;;
21354;SDS011;10835;50.148;19.760;2022-09-17T14:18:34;7.53;;;3.90;;
21354;SDS011;10835;50.148;19.760;2022-09-17T14:21:05;5.85;;;3.03;;
21354;SDS011;10835;50.148;19.760;2022-09-17T14:23:43;3.42;;;2.55;;
21354;SDS011;10835;50.148;19.760;2022-09-17T14:26:19;6.07;;;3.17;;
21354;SDS011;10835;50.148;19.760;2022-09-17T14:28:59;3.33;;;2.80;;
21354;SDS011;10835;50.148;19.760;2022-09-17T14:31:35;6.95;;;2.70;;
21354;SDS011;10835;50.148;19.760;2022-09-17T14:34:03;5.43;;;3.08;;
21354;SDS011;10835;50.148;19.760;2022-09-17T14:36:33;4.63;;;3.13;;
21354;SDS011;10835;50.148;19.760;2022-09-17T14:39:04;5.88;;;3.30;;
21354;SDS011;10835;50.148;19.760;2022-09-17T14:41:48;6.25;;;3.17;;
21354;SDS011;10835;50.148;19.760;2022-09-17T14:44:19;5.45;;;2.85;;
21354;SDS011;10835;50.148;19.760;2022-09-17T14:46:50;5.20;;;2.90;;
21354;SDS011;10835;50.148;19.760;2022-09-17T14:49:22;10.15;;;2.95;;
21354;SDS011;10835;50.148;19.760;2022-09-17T14:51:52;3.90;;;2.83;;
21354;SDS011;10835;50.148;19.760;2022-09-17T14:54:23;4.45;;;2.05;;
21354;SDS011;10835;50.148;19.760;2022-09-17T14:56:57;5.53;;;3.05;;
21354;SDS011;10835;50.148;19.760;2022-09-17T14:59:37;4.22;;;2.78;;
21354;SDS011;10835;50.148;19.760;2022-09-17T15:02:26;3.80;;;2.55;;
21354;SDS011;10835;50.148;19.760;2022-09-17T15:05:01;3.90;;;2.22;;
21354;SDS011;10835;50.148;19.760;2022-09-17T15:07:43;4.07;;;2.47;;
21354;SDS011;10835;50.148;19.760;2022-09-17T15:10:13;4.70;;;2.65;;
21354;SDS011;10835;50.148;19.760;2022-09-17T15:12:44;4.25;;;2.70;;
21354;SDS011;10835;50.148;19.760;2022-09-17T15:15:16;3.63;;;2.45;;
21354;SDS011;10835;50.148;19.760;2022-09-17T15:17:47;3.83;;;2.40;;
21354;SDS011;10835;50.148;19.760;2022-09-17T15:20:17;3.40;;;2.17;;
21354;SDS011;10835;50.148;19.760;2022-09-17T15:22:48;4.00;;;2.55;;
21354;SDS011;10835;50.148;19.760;2022-09-17T15:25:22;7.88;;;2.75;;
21354;SDS011;10835;50.148;19.760;2022-09-17T15:28:02;5.63;;;2.80;;
21354;SDS011;10835;50.148;19.760;2022-09-17T15:30:40;4.22;;;2.83;;
21354;SDS011;10835;50.148;19.760;2022-09-17T15:33:08;6.45;;;2.85;;
21354;SDS011;10835;50.148;19.760;2022-09-17T15:35:38;4.78;;;2.83;;
21354;SDS011;10835;50.148;19.760;2022-09-17T15:38:18;4.75;;;3.05;;
21354;SDS011;10835;50.148;19.760;2022-09-17T15:40:53;3.60;;;2.45;;
21354;SDS011;10835;50.148;19.760;2022-09-17T15:43:24;3.08;;;2.28;;
21354;SDS011;10835;50.148;19.760;2022-09-17T15:45:54;5.65;;;3.00;;
21354;SDS011;10835;50.148;19.760;2022-09-17T15:48:33;6.55;;;2.88;;
21354;SDS011;10835;50.148;19.760;2022-09-17T15:51:02;4.22;;;2.45;;
21354;SDS011;10835;50.148;19.760;2022-09-17T15:53:33;3.80;;;3.10;;
21354;SDS011;10835;50.148;19.760;2022-09-17T15:56:06;4.82;;;3.13;;
21354;SDS011;10835;50.148;19.760;2022-09-17T15:58:52;5.95;;;3.08;;